Time;durP1;ratioP1;P1;durP2;ratioP2;P2;SDS_P1;SDS_P2;PMS_P1;PMS_P2;Temp;Humidity;BMP_temperature;BMP_pressure;BME280_temperature;BME280_humidity;BME280_pressure;Samples;Min_cycle;Max_cycle;Signal;HPM_P1;HPM_P2
2022/04/16 00:01:43;;;;;;;0.68;0.68;;;11.00;64.20;;;10.41;49.96;95588.66;5052071;28;20222;-85
2022/04/16 00:04:11;;;;;;;0.50;0.50;;;11.10;64.20;;;10.24;49.92;95566.91;5036692;28;20222;-85
2022/04/16 00:06:38;;;;;;;0.50;0.50;;;11.00;64.20;;;10.31;50.25;95587.19;5039666;28;20191;-85
2022/04/16 00:09:05;;;;;;;0.70;0.70;;;11.00;64.20;;;10.21;50.57;95585.59;5052868;28;20242;-84
2022/04/16 00:11:33;;;;;;;0.70;0.70;;;10.90;64.60;;;10.27;50.58;95586.72;5020040;28;20200;-83
2022/04/16 00:14:00;;;;;;;0.50;0.50;;;10.90;64.40;;;10.24;50.78;95582.66;5036289;28;20327;-85
2022/04/16 00:16:27;;;;;;;0.50;0.50;;;10.90;64.40;;;10.26;50.63;95572.00;5046589;28;20204;-85
2022/04/16 00:18:56;;;;;;;0.60;0.60;;;10.90;64.60;;;10.34;50.80;95584.22;5058435;28;20198;-85
2022/04/16 00:21:26;;;;;;;0.60;0.60;;;10.80;64.60;;;10.37;50.89;95594.41;5040406;28;20302;-84
2022/04/16 00:23:54;;;;;;;0.70;0.70;;;10.90;65.10;;;10.40;50.77;95586.22;5052855;28;20219;-85
2022/04/16 00:26:21;;;;;;;0.60;0.60;;;10.90;64.80;;;10.43;50.57;95579.78;5041401;28;20722;-85
2022/04/16 00:28:52;;;;;;;0.50;0.50;;;10.90;64.70;;;10.44;50.43;95579.59;5056416;28;20222;-85
2022/04/16 00:31:20;;;;;;;0.50;0.50;;;11.00;64.70;;;10.39;50.45;95582.75;5073472;28;20199;-85
2022/04/16 00:33:48;;;;;;;0.70;0.70;;;11.00;64.80;;;10.37;50.78;95576.84;5062450;28;20227;-85
2022/04/16 00:36:15;;;;;;;0.45;0.45;;;11.00;64.90;;;10.43;50.80;95585.03;5035879;28;20211;-85
2022/04/16 00:38:43;;;;;;;0.70;0.70;;;11.00;65.00;;;10.36;51.23;95577.00;5035886;28;20208;-84
2022/04/16 00:41:12;;;;;;;0.60;0.60;;;11.00;65.10;;;10.35;51.34;95576.19;5037451;28;20207;-84
2022/04/16 00:43:40;;;;;;;0.60;0.60;;;10.90;65.00;;;10.32;51.27;95578.34;5039096;28;22378;-85
2022/04/16 00:46:07;;;;;;;0.70;0.70;;;10.90;65.00;;;10.31;50.91;95584.59;5050109;28;20215;-85
2022/04/16 00:48:34;;;;;;;0.50;0.50;;;10.90;64.90;;;10.28;51.10;95580.50;5052243;28;20235;-85
2022/04/16 00:51:02;;;;;;;0.50;0.50;;;10.90;65.00;;;10.26;51.16;95577.22;5060019;28;20215;-85
2022/04/16 00:53:29;;;;;;;0.50;0.50;;;10.80;65.10;;;10.24;51.56;95572.16;5036651;28;20204;-85
2022/04/16 00:55:58;;;;;;;0.50;0.50;;;10.80;65.30;;;10.22;52.10;95573.34;5033376;28;20211;-85
2022/04/16 00:58:25;;;;;;;0.60;0.60;;;10.80;65.70;;;10.18;51.94;95564.16;5055961;28;20199;-85
2022/04/16 01:00:52;;;;;;;0.60;0.60;;;10.80;65.70;;;10.18;52.26;95564.16;5037702;28;20707;-84
2022/04/16 01:03:20;;;;;;;0.40;0.40;;;10.80;65.80;;;10.17;52.02;95567.78;5041420;28;20214;-86
2022/04/16 01:05:47;;;;;;;0.50;0.50;;;10.80;65.80;;;10.05;52.43;95557.69;5060198;28;20216;-85
2022/04/16 01:08:18;;;;;;;0.50;0.50;;;10.80;65.90;;;10.15;52.58;95572.38;5044385;28;20208;-85
2022/04/16 01:10:46;;;;;;;0.50;0.50;;;10.70;66.00;;;10.13;52.22;95569.94;5043281;28;20220;-85
2022/04/16 01:13:13;;;;;;;0.60;0.60;;;10.70;65.70;;;10.01;52.10;95553.78;5033104;28;20207;-85
2022/04/16 01:15:41;;;;;;;0.50;0.50;;;10.70;66.00;;;10.05;52.79;95556.88;5036133;28;20227;-85
2022/04/16 01:18:08;;;;;;;0.50;0.50;;;10.70;66.10;;;10.12;52.73;95570.94;5019144;28;20211;-85
2022/04/16 01:20:41;;;;;;;0.50;0.50;;;10.70;66.10;;;10.09;52.39;95566.03;5018726;28;20216;-84
2022/04/16 01:23:08;;;;;;;0.50;0.50;;;10.70;66.10;;;9.97;52.55;95547.25;5029121;28;20203;-85
2022/04/16 01:25:36;;;;;;;0.50;0.50;;;10.70;66.10;;;10.15;52.48;95570.56;5048615;28;20709;-85
2022/04/16 01:28:04;;;;;;;0.50;0.50;;;10.60;66.00;;;10.15;52.20;95570.56;5019345;28;20215;-84
2022/04/16 01:30:32;;;;;;;0.50;0.50;;;10.70;66.00;;;10.17;52.16;95573.03;5022644;28;20230;-85
2022/04/16 01:33:01;;;;;;;0.50;0.50;;;10.70;66.10;;;10.20;51.96;95577.91;5038225;28;20649;-84
2022/04/16 01:35:29;;;;;;;0.50;0.50;;;10.70;66.90;;;10.21;52.38;95577.75;5041863;28;20215;-84
2022/04/16 01:37:57;;;;;;;0.50;0.50;;;10.70;66.10;;;10.13;52.57;95561.25;5045730;28;20207;-85
2022/04/16 01:40:25;;;;;;;0.70;0.70;;;10.70;66.10;;;10.23;52.40;95569.72;5037373;28;20206;-85
2022/04/16 01:42:57;;;;;;;0.50;0.50;;;10.70;66.20;;;10.22;52.57;95568.91;5055692;28;20195;-84
2022/04/16 01:45:24;;;;;;;0.60;0.60;;;10.80;66.40;;;10.23;52.75;95570.53;5052531;28;20298;-85
2022/04/16 01:47:51;;;;;;;0.70;0.70;;;10.70;66.30;;;10.24;52.58;95564.31;5058548;28;20245;-86
2022/04/16 01:50:19;;;;;;;0.50;0.50;;;10.80;66.30;;;10.26;52.78;95564.13;5048339;28;20254;-85
2022/04/16 01:52:47;;;;;;;0.60;0.60;;;10.80;66.50;;;10.25;52.81;95559.88;5047453;28;20223;-84
2022/04/16 01:55:14;;;;;;;0.52;0.52;;;10.80;66.40;;;10.09;52.96;95535.41;5061452;28;20211;-85
2022/04/16 01:57:42;;;;;;;0.60;0.60;;;10.80;66.70;;;10.25;52.80;95560.69;5064344;28;20282;-85
2022/04/16 02:00:14;;;;;;;0.50;0.50;;;10.80;66.80;;;10.25;52.70;95555.44;5068951;28;20210;-84
2022/04/16 02:02:42;;;;;;;0.60;0.60;;;10.80;66.70;;;10.19;52.68;95548.28;5048122;28;20241;-86
2022/04/16 02:05:10;;;;;;;0.50;0.50;;;10.80;66.80;;;10.26;53.13;95545.78;5053360;28;20707;-85
2022/04/16 02:07:38;;;;;;;0.50;0.50;;;10.80;66.90;;;10.24;53.18;95550.34;5032991;28;20211;-85
2022/04/16 02:10:07;;;;;;;0.50;0.50;;;10.70;66.80;;;10.20;53.62;95554.31;5038871;28;20250;-85
2022/04/16 02:12:38;;;;;;;0.50;0.50;;;10.70;67.40;;;10.20;53.73;95549.88;5056474;28;20206;-86
2022/04/16 02:15:06;;;;;;;0.50;0.50;;;10.70;67.50;;;10.20;53.53;95549.09;5040224;28;20219;-85
2022/04/16 02:17:33;;;;;;;0.50;0.50;;;10.70;67.20;;;10.17;53.53;95547.63;5041943;28;20721;-85
2022/04/16 02:20:00;;;;;;;0.60;0.60;;;10.70;67.10;;;10.20;53.27;95546.47;5066110;28;20219;-85
2022/04/16 02:22:46;;;;;;;0.50;0.50;;;10.70;67.20;;;10.17;53.46;95544.22;5058270;28;20199;-85
2022/04/16 02:25:16;;;;;;;0.50;0.50;;;10.70;67.60;;;10.15;54.15;95539.13;5038503;28;20212;-85
2022/04/16 02:27:44;;;;;;;0.50;0.50;;;10.70;67.40;;;10.17;53.41;95542.38;5036945;28;20196;-85
2022/04/16 02:30:16;;;;;;;0.50;0.50;;;10.70;67.20;;;10.02;53.85;95512.66;5054133;28;20591;-85
2022/04/16 02:32:52;;;;;;;0.50;0.50;;;10.70;67.50;;;10.18;54.29;95540.56;5025694;28;20222;-85
2022/04/16 02:35:19;;;;;;;0.50;0.50;;;10.70;67.60;;;10.17;54.16;95531.91;5058779;28;20309;-85
2022/04/16 02:37:47;;;;;;;0.50;0.50;;;10.70;67.60;;;10.16;53.97;95529.47;5060996;28;20291;-84
2022/04/16 02:40:14;;;;;;;0.50;0.50;;;10.70;67.50;;;10.14;54.07;95527.00;5021328;28;20212;-85
2022/04/16 02:42:45;;;;;;;0.80;0.80;;;10.70;67.80;;;10.13;54.37;95533.25;5038607;28;20290;-84
2022/04/16 02:48:02;;;;;;;0.50;0.50;;;10.60;67.90;;;10.04;54.60;95521.16;5074395;28;20214;-85
2022/04/16 02:50:29;;;;;;;0.50;0.50;;;10.60;67.80;;;10.01;55.20;95524.97;5041896;28;20294;-86
2022/04/16 02:52:59;;;;;;;0.50;0.50;;;10.60;68.20;;;10.01;54.69;95529.38;5058429;28;20207;-85
2022/04/16 02:55:27;;;;;;;0.50;0.50;;;10.70;68.20;;;9.88;55.00;95507.16;5060566;28;20235;-85
2022/04/16 02:57:54;;;;;;;0.50;0.50;;;10.60;68.20;;;9.98;54.96;95516.63;5057834;28;20203;-85
2022/04/16 03:00:25;;;;;;;0.50;0.50;;;10.60;68.20;;;9.96;55.37;95521.22;5057297;28;20242;-85
2022/04/16 03:02:53;;;;;;;0.50;0.50;;;10.50;68.50;;;9.85;55.33;95512.78;5042122;28;20295;-85
2022/04/16 03:05:20;;;;;;;0.50;0.50;;;10.50;68.60;;;9.85;55.71;95517.19;5058080;28;20217;-86
2022/04/16 03:07:47;;;;;;;0.60;0.60;;;10.50;69.00;;;9.63;55.81;95485.53;5040886;28;20239;-85
2022/04/16 03:10:15;;;;;;;0.50;0.50;;;10.40;68.80;;;9.77;55.98;95518.03;5055519;28;20218;-85
2022/04/16 03:12:51;;;;;;;0.50;0.50;;;10.50;69.00;;;9.67;55.90;95513.03;5057900;28;20290;-86
2022/04/16 03:18:08;;;;;;;0.50;0.50;;;10.30;69.20;;;9.66;56.23;95534.16;5060253;28;20191;-85
2022/04/16 03:20:37;;;;;;;0.50;0.50;;;10.30;69.30;;;9.63;56.81;95531.84;5041461;28;20632;-85
2022/04/16 03:23:05;;;;;;;0.50;0.50;;;10.30;69.70;;;9.60;56.68;95541.69;5058110;28;20418;-85
2022/04/16 03:25:32;;;;;;;0.77;0.77;;;10.30;69.70;;;9.51;56.97;95537.47;5037285;28;20212;-85
2022/04/16 03:28:00;;;;;;;0.50;0.50;;;10.20;69.70;;;9.53;56.96;95546.00;5015990;28;20227;-85
2022/04/16 03:30:27;;;;;;;0.60;0.60;;;10.20;70.00;;;9.45;57.25;95543.41;5050536;28;20780;-85
2022/04/16 03:32:54;;;;;;;0.60;0.60;;;10.10;70.00;;;9.46;56.61;95555.50;5056301;28;20203;-85
2022/04/16 03:35:23;;;;;;;0.50;0.50;;;10.10;69.80;;;9.26;56.92;95528.88;5056930;28;20262;-85
2022/04/16 03:37:51;;;;;;;0.50;0.50;;;10.10;69.80;;;9.41;57.00;95561.25;5040786;28;20208;-85
2022/04/16 03:40:19;;;;;;;0.50;0.50;;;10.10;69.60;;;9.37;56.77;95562.53;5053908;28;20215;-85
2022/04/16 03:42:52;;;;;;;0.50;0.50;;;10.00;69.50;;;9.30;56.54;95564.19;5036241;28;20420;-85
2022/04/16 03:45:32;;;;;;;0.70;0.70;;;10.00;69.80;;;9.29;56.31;95570.44;5039515;28;20227;-85
2022/04/16 03:48:02;;;;;;;0.50;0.50;;;10.00;70.30;;;9.33;56.46;95578.78;5040483;28;20204;-85
2022/04/16 03:50:31;;;;;;;0.70;0.70;;;10.00;69.30;;;9.28;55.99;95580.06;5044195;28;20223;-85
2022/04/16 03:52:59;;;;;;;0.50;0.50;;;9.90;70.50;;;9.21;55.71;95586.97;5048876;28;20222;-85
2022/04/16 04:01:04;;;;;;;0.70;0.70;;;9.90;70.20;;;9.17;55.68;95596.13;5042599;28;20194;-86
2022/04/16 04:03:32;;;;;;;0.50;0.50;;;9.80;70.00;;;9.13;55.77;95595.66;5040136;28;20238;-86
2022/04/16 04:06:01;;;;;;;0.40;0.40;;;9.80;69.90;;;9.02;55.54;95579.47;5048892;28;20216;-84
2022/04/16 04:08:28;;;;;;;0.60;0.60;;;9.80;70.00;;;9.13;55.36;95592.22;5020455;28;20207;-86
2022/04/16 04:10:55;;;;;;;0.60;0.60;;;9.80;69.90;;;9.02;55.42;95577.69;5036763;28;20752;-84
2022/04/16 04:13:23;;;;;;;0.70;0.70;;;9.70;69.90;;;9.06;55.40;95593.88;5055610;28;20282;-85
2022/04/16 04:15:52;;;;;;;0.70;0.70;;;9.70;69.90;;;9.16;55.29;95607.59;5043467;28;20226;-85
2022/04/16 04:18:19;;;;;;;0.50;0.50;;;9.70;69.90;;;9.15;55.17;95600.72;5056401;28;20581;-85
2022/04/16 04:20:46;;;;;;;0.70;0.70;;;9.70;69.80;;;9.16;55.03;95604.97;5045254;28;20659;-84
2022/04/16 04:23:13;;;;;;;0.70;0.70;;;9.70;69.80;;;9.18;55.27;95613.47;5073235;28;20232;-84
2022/04/16 04:25:40;;;;;;;0.60;0.60;;;9.80;69.80;;;9.17;55.13;95606.59;5051895;28;20647;-84
2022/04/16 04:28:07;;;;;;;0.63;0.63;;;9.80;70.00;;;9.20;55.27;95608.06;5020097;28;20221;-85
2022/04/16 04:30:34;;;;;;;0.50;0.50;;;9.70;69.80;;;9.20;55.33;95606.25;5038940;28;20219;-85
2022/04/16 04:33:01;;;;;;;0.70;0.70;;;9.80;69.90;;;9.18;55.41;95610.03;5073264;28;20191;-85
2022/04/16 04:35:28;;;;;;;0.50;0.50;;;9.80;70.00;;;9.14;55.55;95601.69;5055121;28;20246;-84
2022/04/16 04:37:55;;;;;;;0.50;0.50;;;9.70;70.00;;;9.13;55.37;95607.94;5056039;28;20199;-85
2022/04/16 04:40:23;;;;;;;0.50;0.50;;;9.70;70.20;;;9.13;55.46;95615.78;5052690;28;20578;-84
2022/04/16 04:42:50;;;;;;;0.50;0.50;;;9.70;70.20;;;9.15;55.94;95633.94;5003088;28;20211;-84
2022/04/16 04:45:17;;;;;;;0.50;0.50;;;9.70;70.10;;;9.10;55.22;95631.81;5055078;28;20310;-85
2022/04/16 04:47:44;;;;;;;0.60;0.60;;;9.70;70.10;;;9.10;55.52;95637.84;5055865;28;20199;-85
2022/04/16 04:50:12;;;;;;;0.60;0.60;;;9.70;70.20;;;9.09;55.50;95643.25;5036734;28;20239;-85
2022/04/16 04:52:41;;;;;;;0.50;0.50;;;9.70;70.20;;;9.06;55.32;95647.00;5039931;28;20669;-85
2022/04/16 04:55:11;;;;;;;0.50;0.50;;;9.60;70.00;;;9.04;55.23;95650.78;5023587;28;20285;-84
2022/04/16 04:57:40;;;;;;;0.40;0.40;;;9.60;70.10;;;9.02;55.10;95647.50;5057743;28;20191;-84
2022/04/16 05:00:10;;;;;;;0.50;0.50;;;9.60;70.00;;;9.00;55.40;95655.53;5054023;28;20314;-85
2022/04/16 05:02:49;;;;;;;0.60;0.60;;;9.60;70.10;;;8.99;55.41;95648.66;5065259;28;20650;-85
2022/04/16 05:05:17;;;;;;;0.60;0.60;;;9.50;71.20;;;8.98;55.45;95649.63;5035848;28;20617;-84
2022/04/16 05:07:44;;;;;;;0.50;0.50;;;9.50;70.10;;;8.90;55.31;95642.59;5035425;28;20200;-83
2022/04/16 05:10:12;;;;;;;0.50;0.50;;;9.50;70.00;;;8.98;55.11;95654.84;5038287;28;20677;-83
2022/04/16 05:12:39;;;;;;;0.70;0.70;;;9.50;69.90;;;8.95;54.95;95649.97;5037068;28;20198;-83
2022/04/16 05:15:07;;;;;;;0.70;0.70;;;9.50;70.00;;;8.98;55.06;95654.84;5038298;28;20317;-83
2022/04/16 05:17:37;;;;;;;0.70;0.70;;;9.50;70.00;;;9.02;55.14;95657.97;5035251;28;20287;-83
2022/04/16 05:20:09;;;;;;;0.60;0.60;;;9.50;69.80;;;9.01;55.17;95658.94;5035144;28;20216;-83
2022/04/16 05:22:37;;;;;;;0.70;0.70;;;9.50;70.10;;;9.03;54.74;95657.00;5034450;28;20203;-83
2022/04/16 05:25:05;;;;;;;0.50;0.50;;;9.50;69.80;;;9.01;54.85;95659.78;5050916;28;20745;-83
2022/04/16 05:27:34;;;;;;;0.50;0.50;;;9.50;69.80;;;9.06;55.09;95669.75;5018164;28;20230;-82
2022/04/16 05:30:07;;;;;;;0.50;0.50;;;9.60;69.90;;;9.06;55.00;95667.94;5070658;28;20223;-83
2022/04/16 05:32:40;;;;;;;0.57;0.57;;;9.60;69.80;;;9.05;54.79;95674.16;5050556;28;20254;-83
2022/04/16 05:35:10;;;;;;;0.50;0.50;;;9.60;69.80;;;9.00;54.98;95665.19;5036654;28;20226;-84
2022/04/16 05:37:37;;;;;;;0.70;0.70;;;9.60;69.80;;;8.97;54.90;95664.50;5054770;28;20708;-83
2022/04/16 05:40:06;;;;;;;0.50;0.50;;;9.60;69.80;;;8.98;54.85;95667.94;5054541;28;20599;-85
2022/04/16 05:42:42;;;;;;;0.50;0.50;;;9.60;69.90;;;8.94;55.02;95680.53;5043567;28;20249;-83
2022/04/16 05:45:14;;;;;;;0.50;0.50;;;9.50;70.00;;;8.92;55.32;95685.13;5054392;28;20222;-83
2022/04/16 05:47:43;;;;;;;0.50;0.50;;;9.50;69.80;;;8.88;54.92;95675.13;5049590;28;20274;-83
2022/04/16 05:50:12;;;;;;;0.50;0.50;;;9.50;69.80;;;8.83;55.16;95667.78;5053742;28;20250;-83
2022/04/16 05:52:40;;;;;;;0.50;0.50;;;9.50;69.80;;;8.84;54.94;95679.03;5051817;28;20683;-84
2022/04/16 05:55:08;;;;;;;0.60;0.60;;;9.50;69.80;;;8.86;55.25;95682.31;5050397;28;20238;-83
2022/04/16 05:57:36;;;;;;;0.50;0.50;;;9.50;69.90;;;8.84;54.93;95690.34;5016813;28;20498;-84
2022/04/16 06:00:05;;;;;;;0.57;0.57;;;9.40;69.70;;;8.81;55.09;95688.03;5050736;28;20307;-83
2022/04/16 06:02:41;;;;;;;0.70;0.70;;;9.40;69.70;;;8.83;55.00;95688.69;5054279;28;20218;-83
2022/04/16 06:05:09;;;;;;;0.60;0.60;;;9.40;69.80;;;8.84;55.07;95689.50;5053260;28;20223;-83
2022/04/16 06:07:36;;;;;;;0.52;0.52;;;9.40;69.70;;;8.80;55.06;95692.47;5037423;28;20622;-84
2022/04/16 06:10:03;;;;;;;0.60;0.60;;;9.40;69.80;;;8.83;54.70;95695.75;5054584;28;20226;-84
2022/04/16 06:12:30;;;;;;;0.50;0.50;;;9.40;69.80;;;8.63;54.89;95667.25;5040258;28;20200;-85
2022/04/16 06:14:59;;;;;;;0.60;0.60;;;9.30;69.80;;;8.78;55.03;95704.06;5053810;28;20701;-84
2022/04/16 06:17:26;;;;;;;0.50;0.50;;;9.30;69.80;;;8.74;54.67;95692.28;5037747;28;20195;-84
2022/04/16 06:19:53;;;;;;;0.50;0.50;;;9.30;69.70;;;8.76;55.01;95699.00;5030567;28;20708;-84
2022/04/16 06:22:20;;;;;;;0.50;0.50;;;9.30;69.80;;;8.74;54.94;95690.47;5028931;28;20200;-84
2022/04/16 06:24:48;;;;;;;0.70;0.70;;;9.30;69.80;;;8.76;54.82;95696.38;5034363;28;20684;-84
2022/04/16 06:27:15;;;;;;;0.50;0.50;;;9.30;69.80;;;8.79;55.04;95713.56;5037201;28;20211;-84
2022/04/16 06:29:43;;;;;;;0.70;0.70;;;9.30;69.80;;;8.74;54.96;95700.94;5054928;28;20223;-84
2022/04/16 06:32:10;;;;;;;0.60;0.60;;;9.30;69.70;;;8.87;54.81;95712.75;5037647;28;20208;-84
2022/04/16 06:34:37;;;;;;;0.60;0.60;;;9.30;69.70;;;8.90;54.81;95715.00;5023622;28;20216;-85
2022/04/16 06:37:04;;;;;;;0.50;0.50;;;9.30;69.70;;;8.94;54.72;95718.97;5054185;28;20196;-85
2022/04/16 06:39:33;;;;;;;0.70;0.70;;;9.40;69.80;;;8.99;54.50;95716.69;5037613;28;20297;-84
2022/04/16 06:42:00;;;;;;;0.60;0.60;;;9.40;69.80;;;9.03;54.59;95717.97;5035457;28;20645;-84
2022/04/16 06:44:27;;;;;;;0.70;0.70;;;9.40;69.70;;;9.05;54.59;95723.88;5054390;28;20306;-84
2022/04/16 06:46:54;;;;;;;0.50;0.50;;;9.50;69.70;;;9.03;54.67;95723.22;5039144;28;20199;-85
2022/04/16 06:49:22;;;;;;;0.63;0.63;;;9.50;69.60;;;9.01;54.58;95727.81;5053930;28;20272;-85
2022/04/16 06:51:48;;;;;;;0.60;0.60;;;9.50;69.50;;;9.00;54.29;95725.34;5037874;28;20223;-85
2022/04/16 06:54:16;;;;;;;0.60;0.60;;;9.50;69.40;;;8.97;54.25;95729.94;5050993;28;20697;-85
2022/04/16 06:56:43;;;;;;;0.50;0.50;;;9.50;69.40;;;8.95;54.33;95736.31;5038243;28;20192;-85
2022/04/16 06:59:10;;;;;;;0.50;0.50;;;9.50;69.40;;;8.86;54.60;95721.56;5047416;28;20715;-85
2022/04/16 07:01:37;;;;;;;0.50;0.50;;;9.50;69.30;;;8.88;54.43;95736.13;5057915;28;20199;-85
2022/04/16 07:04:05;;;;;;;0.70;0.70;;;9.50;69.40;;;8.86;54.40;95739.88;5058139;28;20227;-86
2022/04/16 07:06:32;;;;;;;0.50;0.50;;;9.40;69.40;;;8.76;54.76;95740.00;5056836;28;20202;-85
2022/04/16 07:08:59;;;;;;;0.60;0.60;;;9.40;69.40;;;8.78;54.74;95753.75;5026370;28;20224;-86
2022/04/16 07:11:26;;;;;;;0.75;0.75;;;9.40;69.40;;;8.60;54.86;95722.47;5071181;28;20255;-85
2022/04/16 07:13:53;;;;;;;0.50;0.50;;;9.40;69.50;;;8.58;54.48;95729.66;5073505;28;20669;-85
2022/04/16 07:16:20;;;;;;;0.50;0.50;;;9.30;69.40;;;8.65;54.67;95748.97;5062574;28;20188;-86
2022/04/16 07:18:47;;;;;;;0.70;0.70;;;9.30;69.70;;;8.63;55.04;95750.94;5036182;28;20297;-86
2022/04/16 07:21:14;;;;;;;0.50;0.50;;;9.20;69.70;;;8.60;54.94;95767.75;5054789;28;20196;-86
2022/04/16 07:23:41;;;;;;;0.50;0.50;;;9.20;69.70;;;8.54;54.79;95757.13;5074402;28;21019;-85
2022/04/16 07:26:08;;;;;;;0.50;0.50;;;9.20;69.80;;;8.52;55.15;95761.66;5055301;28;20191;-84
2022/04/16 07:28:35;;;;;;;0.50;0.50;;;9.10;69.90;;;8.44;55.25;95763.25;5070736;28;20282;-86
2022/04/16 07:31:02;;;;;;;0.70;0.70;;;9.10;70.10;;;8.44;55.39;95773.69;5048752;28;20216;-85
2022/04/16 07:33:30;;;;;;;0.70;0.70;;;9.00;70.10;;;8.39;55.71;95767.31;5040498;28;20203;-86
2022/04/16 07:35:57;;;;;;;0.70;0.70;;;9.00;70.30;;;8.39;55.61;95775.97;5054457;28;20215;-85
2022/04/16 07:38:24;;;;;;;0.50;0.50;;;9.00;70.30;;;8.35;55.60;95764.22;5050179;28;20199;-87
2022/04/16 07:40:51;;;;;;;0.50;0.50;;;9.00;70.50;;;8.38;56.19;95771.72;5055251;28;20226;-86
2022/04/16 07:43:18;;;;;;;0.60;0.60;;;8.90;70.50;;;8.42;55.82;95790.53;5041629;28;20204;-87
2022/04/16 07:45:45;;;;;;;0.50;0.50;;;8.90;70.60;;;8.43;55.97;95790.34;5037618;28;20220;-86
2022/04/16 07:48:12;;;;;;;0.50;0.50;;;9.00;70.80;;;8.48;56.38;95787.31;5031325;28;20791;-85
2022/04/16 07:50:40;;;;;;;0.60;0.60;;;9.00;70.90;;;8.57;56.14;95793.38;5056188;28;20233;-86
2022/04/16 07:53:07;;;;;;;0.50;0.50;;;9.00;71.00;;;8.57;56.28;95777.69;5057032;28;20191;-86
2022/04/16 07:55:34;;;;;;;0.50;0.50;;;9.00;71.10;;;8.67;56.16;95770.56;5058916;28;20268;-85
2022/04/16 07:58:01;;;;;;;0.50;0.50;;;9.10;71.30;;;8.94;56.02;95792.22;5040635;28;20235;-86
2022/04/16 08:00:28;;;;;;;0.50;0.50;;;9.10;71.40;;;9.02;55.87;95791.41;5040231;28;20219;-86
2022/04/16 08:02:56;;;;;;;0.50;0.50;;;9.20;71.40;;;9.06;56.04;95800.59;5036743;28;20207;-85
2022/04/16 08:05:23;;;;;;;0.50;0.50;;;9.30;71.40;;;9.09;55.59;95798.47;5052578;28;20216;-86
2022/04/16 08:07:55;;;;;;;0.50;0.50;;;9.30;71.30;;;9.17;55.96;95809.91;5050474;28;20191;-86
2022/04/16 08:10:23;;;;;;;0.68;0.68;;;9.40;71.30;;;9.24;55.85;95810.91;5055499;28;20218;-87
2022/04/16 08:12:50;;;;;;;0.50;0.50;;;9.40;71.40;;;9.30;55.71;95810.28;5043950;28;20231;-84
2022/04/16 08:15:17;;;;;;;0.60;0.60;;;9.50;71.40;;;9.43;55.67;95801.94;5056198;28;20222;-84
2022/04/16 08:17:44;;;;;;;0.50;0.50;;;9.60;71.30;;;9.53;55.38;95814.88;5033281;28;20568;-84
2022/04/16 08:20:12;;;;;;;0.60;0.60;;;9.60;71.10;;;9.57;55.14;95818.81;5036159;28;20223;-84
2022/04/16 08:22:46;;;;;;;0.60;0.60;;;9.70;70.80;;;9.58;54.57;95823.91;5052251;28;20600;-85
2022/04/16 08:27:47;;;;;;;0.50;0.50;;;9.80;70.50;;;9.59;54.61;95825.53;5053356;28;20270;-85
2022/04/16 08:30:16;;;;;;;0.50;0.50;;;9.80;70.20;;;9.54;54.62;95822.56;5038339;28;20220;-85
2022/04/16 08:32:45;;;;;;;0.50;0.50;;;9.90;70.10;;;9.51;54.21;95830.78;5027722;28;20567;-84
2022/04/16 08:35:15;;;;;;;0.60;0.60;;;9.90;69.90;;;9.45;54.24;95815.72;5040365;28;20211;-85
2022/04/16 08:37:43;;;;;;;0.60;0.60;;;9.80;69.70;;;9.49;54.44;95821.44;5051855;28;20658;-85
2022/04/16 08:40:12;;;;;;;0.80;0.80;;;9.90;69.70;;;9.45;54.12;95824.38;5020812;28;20699;-85
2022/04/16 08:42:44;;;;;;;0.50;0.50;;;9.90;69.70;;;9.44;54.31;95820.13;5055791;28;20195;-85
2022/04/16 08:45:12;;;;;;;0.70;0.70;;;9.90;69.60;;;9.43;54.27;95828.13;5048254;28;20216;-84
2022/04/16 08:47:40;;;;;;;0.70;0.70;;;9.80;69.40;;;9.40;54.02;95831.09;5071525;28;20207;-85
2022/04/16 08:50:10;;;;;;;0.60;0.60;;;9.90;69.50;;;9.41;54.11;95837.94;5035522;28;20224;-85
2022/04/16 08:52:40;;;;;;;0.60;0.60;;;9.90;69.40;;;9.41;53.97;95848.41;5039073;28;20285;-84
2022/04/16 08:55:13;;;;;;;0.50;0.50;;;9.80;69.20;;;9.41;53.75;95848.41;5054793;28;20219;-84
2022/04/16 08:57:41;;;;;;;0.50;0.50;;;9.80;69.10;;;9.42;53.83;95855.28;5037405;28;20191;-84
2022/04/16 09:00:13;;;;;;;0.50;0.50;;;9.80;69.20;;;9.38;53.86;95843.53;5046720;28;20218;-85
2022/04/16 09:02:59;;;;;;;0.50;0.50;;;9.80;69.10;;;9.34;53.47;95852.66;5050810;28;20207;-85
2022/04/16 09:05:28;;;;;;;0.70;0.70;;;9.80;68.80;;;9.25;53.56;95859.69;5068459;28;20694;-84
2022/04/16 09:07:58;;;;;;;0.50;0.50;;;9.80;68.80;;;9.11;53.64;95856.69;5038336;28;20199;-84
2022/04/16 09:10:28;;;;;;;0.60;0.60;;;9.70;68.60;;;9.06;53.56;95863.41;5050154;28;20280;-85
2022/04/16 09:12:58;;;;;;;0.70;0.70;;;9.60;68.70;;;8.99;53.67;95865.81;5055522;28;20218;-85
2022/04/16 09:15:28;;;;;;;0.50;0.50;;;9.60;68.80;;;8.86;53.65;95858.44;5054768;28;20215;-84
2022/04/16 09:18:04;;;;;;;0.50;0.50;;;9.50;68.70;;;8.82;53.98;95849.25;5016013;28;20204;-84
2022/04/16 09:20:39;;;;;;;0.60;0.60;;;9.50;68.90;;;8.80;53.74;95859.88;5030634;28;20772;-86
2022/04/16 09:23:20;;;;;;;0.50;0.50;;;9.40;68.90;;;8.82;54.05;95867.56;5054092;28;20216;-85
2022/04/16 09:25:49;;;;;;;0.70;0.70;;;9.40;69.00;;;8.71;53.87;95858.19;5038714;28;20222;-86
2022/04/16 09:28:21;;;;;;;0.50;0.50;;;9.40;68.90;;;8.81;53.88;95877.22;5038025;28;20223;-85
2022/04/16 09:30:56;;;;;;;0.40;0.40;;;9.40;69.00;;;8.82;53.83;95880.63;5040247;28;20239;-85
2022/04/16 09:33:24;;;;;;;0.60;0.60;;;9.40;69.00;;;8.86;53.84;95878.53;5071266;28;20198;-84
2022/04/16 09:35:58;;;;;;;0.70;0.70;;;9.30;68.90;;;8.90;53.73;95885.06;5071759;28;20577;-85
2022/04/16 09:38:30;;;;;;;0.70;0.70;;;9.30;68.70;;;8.92;53.54;95883.13;5048445;28;20253;-86
2022/04/16 09:41:05;;;;;;;0.50;0.50;;;9.40;68.80;;;8.93;53.21;95890.00;5035967;28;20216;-85
2022/04/16 09:43:36;;;;;;;0.50;0.50;;;9.40;68.60;;;8.91;53.24;95886.72;5051747;28;20192;-85
2022/04/16 09:46:13;;;;;;;0.50;0.50;;;9.40;68.60;;;8.93;52.90;95893.44;5039122;28;20222;-84
2022/04/16 09:48:40;;;;;;;0.80;0.80;;;9.40;68.20;;;8.92;53.00;95891.81;5050345;28;20199;-85
2022/04/16 09:51:08;;;;;;;0.50;0.50;;;9.30;68.50;;;8.93;53.27;95892.63;5050527;28;20259;-85
2022/04/16 09:53:37;;;;;;;0.60;0.60;;;9.30;68.70;;;9.02;52.96;95885.63;5056832;28;20195;-85
2022/04/16 09:56:11;;;;;;;0.70;0.70;;;9.40;68.40;;;9.11;52.28;95890.72;5039528;28;20222;-85
2022/04/16 09:58:44;;;;;;;0.50;0.50;;;9.40;68.30;;;9.11;52.05;95885.50;5073702;28;20189;-84
2022/04/16 10:01:11;;;;;;;0.50;0.50;;;9.40;68.10;;;9.23;52.39;95898.31;5058762;28;20256;-84
2022/04/16 10:03:40;;;;;;;0.70;0.70;;;9.40;68.40;;;9.32;52.32;95893.91;5065454;28;20238;-85
2022/04/16 10:06:07;;;;;;;0.50;0.50;;;9.50;68.40;;;9.39;52.55;95900.94;5047024;28;20691;-85
2022/04/16 10:08:35;;;;;;;0.50;0.50;;;9.50;68.40;;;9.45;52.11;95904.75;5054587;28;20182;-85
2022/04/16 10:11:03;;;;;;;0.60;0.60;;;9.60;68.20;;;9.51;51.86;95905.88;5055792;28;20208;-86
2022/04/16 10:13:39;;;;;;;0.70;0.70;;;9.70;68.00;;;9.51;51.46;95904.09;5054100;28;20612;-85
2022/04/16 10:16:19;;;;;;;0.50;0.50;;;9.70;67.80;;;9.57;51.92;95907.84;5064901;28;20187;-85
2022/04/16 10:18:46;;;;;;;0.60;0.60;;;9.80;67.80;;;9.61;51.88;95909.19;5054451;28;20179;-85
2022/04/16 10:21:16;;;;;;;0.50;0.50;;;9.80;67.80;;;9.66;51.62;95921.81;5054397;28;20672;-85
2022/04/16 10:23:45;;;;;;;0.65;0.65;;;9.90;67.70;;;9.69;51.69;95916.25;5056718;28;20242;-85
2022/04/16 10:26:18;;;;;;;0.60;0.60;;;9.90;67.70;;;9.64;51.50;95914.09;5039521;28;20198;-86
2022/04/16 10:28:53;;;;;;;0.70;0.70;;;10.00;66.10;;;9.56;51.23;95917.53;5051103;28;20192;-85
2022/04/16 10:31:33;;;;;;;0.70;0.70;;;10.00;65.70;;;9.54;51.05;95929.94;5057490;28;20222;-84
2022/04/16 10:34:08;;;;;;;0.50;0.50;;;9.90;66.70;;;9.53;51.15;95935.34;5039238;28;20254;-85
2022/04/16 10:36:52;;;;;;;0.52;0.52;;;9.90;67.00;;;9.54;51.22;95929.16;5024183;28;20183;-84
2022/04/16 10:39:34;;;;;;;0.60;0.60;;;9.90;66.90;;;9.56;51.18;95932.44;5038059;28;20270;-86
2022/04/16 10:42:04;;;;;;;0.50;0.50;;;9.90;66.90;;;9.59;50.80;95934.72;5037810;28;20227;-85
2022/04/16 10:44:49;;;;;;;0.60;0.60;;;9.90;66.90;;;9.59;51.04;95929.47;5057602;28;20223;-85
2022/04/16 10:47:19;;;;;;;0.70;0.70;;;9.90;66.50;;;9.69;51.15;95926.72;5057140;28;20231;-85
2022/04/16 10:49:47;;;;;;;0.50;0.50;;;9.90;67.10;;;9.68;51.06;95914.59;5038033;28;20211;-85